createdAt,value
2023-03-29T00:02:20.208Z,101293.44
2023-03-29T00:05:35.282Z,101293.72
2023-03-29T00:08:37.321Z,101298.19
2023-03-29T00:11:52.379Z,101301.72
2023-03-29T00:14:54.313Z,101304.91
2023-03-29T00:18:09.239Z,101315.63
2023-03-29T00:21:18.482Z,101312.53
2023-03-29T00:24:26.641Z,101311.78
2023-03-29T00:27:35.162Z,101319.06
2023-03-29T00:30:44.258Z,101315.37
2023-03-29T00:33:53.157Z,101318.81
2023-03-29T00:37:03.304Z,101327.81
2023-03-29T00:40:13.168Z,101320.38
2023-03-29T00:43:21.760Z,101319.38
2023-03-29T00:46:37.768Z,101325.22
2023-03-29T00:49:39.963Z,101308.94
2023-03-29T00:53:01.479Z,101324.63
2023-03-29T00:56:20.152Z,101326.00
2023-03-29T00:59:31.389Z,101317.25
2023-03-29T01:02:40.500Z,101310.38
2023-03-29T01:06:00.174Z,101308.84
2023-03-29T01:09:05.677Z,101303.38
2023-03-29T01:12:26.227Z,101312.91
2023-03-29T01:15:29.219Z,101303.38
2023-03-29T01:18:44.228Z,101293.00
2023-03-29T01:21:59.223Z,101293.44
2023-03-29T01:25:44.218Z,101290.25
2023-03-29T01:29:06.542Z,101288.56
2023-03-29T01:32:20.929Z,101289.06
2023-03-29T01:35:39.272Z,101285.13
2023-03-29T01:39:04.182Z,101282.88
2023-03-29T01:42:29.225Z,101273.22
2023-03-29T01:45:57.968Z,101277.50
2023-03-29T01:49:13.212Z,101277.75
2023-03-29T01:52:36.205Z,101278.50
2023-03-29T01:55:52.565Z,101290.00
2023-03-29T01:59:11.230Z,101277.53
2023-03-29T02:02:23.303Z,101287.44
2023-03-29T02:05:37.192Z,101290.44
2023-03-29T02:08:53.278Z,101295.72
2023-03-29T02:11:59.561Z,101304.09
2023-03-29T02:15:20.465Z,101297.91
2023-03-29T02:18:22.681Z,101297.28
2023-03-29T02:21:47.223Z,101296.34
2023-03-29T02:24:54.278Z,101302.00
2023-03-29T02:28:11.292Z,101301.03
2023-03-29T02:31:20.550Z,101301.09
2023-03-29T02:34:42.970Z,101302.97
2023-03-29T02:37:55.747Z,101303.06
2023-03-29T02:41:05.321Z,101299.38
2023-03-29T02:44:18.643Z,101294.03
2023-03-29T02:47:34.270Z,101295.19
2023-03-29T02:50:56.287Z,101306.75
2023-03-29T02:54:06.149Z,101305.63
2023-03-29T02:57:29.193Z,101300.78
2023-03-29T03:00:30.818Z,101302.13
2023-03-29T03:03:45.383Z,101304.84
2023-03-29T03:06:47.677Z,101310.38
2023-03-29T03:10:02.506Z,101307.97
2023-03-29T03:13:10.315Z,101310.00
2023-03-29T03:16:25.328Z,101318.81
2023-03-29T03:19:27.696Z,101321.41
2023-03-29T03:22:43.681Z,101315.66
2023-03-29T03:25:45.598Z,101317.53
2023-03-29T03:29:01.753Z,101317.84
2023-03-29T03:32:16.249Z,101323.12
2023-03-29T03:35:24.259Z,101318.00
2023-03-29T03:38:40.254Z,101327.12
2023-03-29T03:41:50.266Z,101330.41
2023-03-29T03:44:58.897Z,101300.91
2023-03-29T03:48:07.491Z,101322.97
2023-03-29T03:51:15.860Z,101318.00
2023-03-29T03:54:27.283Z,101324.84
2023-03-29T03:57:49.239Z,101320.41
2023-03-29T04:00:58.273Z,101326.28
2023-03-29T04:04:13.338Z,101328.44
2023-03-29T04:07:24.662Z,101335.53
2023-03-29T04:10:33.288Z,101333.09
2023-03-29T04:14:07.278Z,101334.97
2023-03-29T04:17:15.334Z,101338.37
2023-03-29T04:20:30.293Z,101326.94
2023-03-29T04:23:32.277Z,101329.59
2023-03-29T04:26:47.267Z,101334.69
2023-03-29T04:29:51.437Z,101327.88
2023-03-29T04:33:06.350Z,101321.13
2023-03-29T04:36:15.292Z,101323.78
2023-03-29T04:42:47.277Z,101324.53
2023-03-29T04:46:02.304Z,101328.34
2023-03-29T04:49:11.564Z,101330.84
2023-03-29T04:52:27.253Z,101326.09
2023-03-29T04:55:35.283Z,101330.62
2023-03-29T04:58:57.308Z,101338.94
2023-03-29T05:02:12.275Z,101343.50
2023-03-29T05:05:20.249Z,101346.06
2023-03-29T05:11:58.733Z,101345.72
2023-03-29T05:15:14.250Z,101338.66
2023-03-29T05:18:31.250Z,101350.72
2023-03-29T05:21:46.388Z,101343.19
2023-03-29T05:24:48.083Z,101342.16
2023-03-29T05:28:02.545Z,101341.09
2023-03-29T05:31:17.389Z,101340.12
2023-03-29T05:34:22.098Z,101335.94
2023-03-29T05:37:36.820Z,101335.09
2023-03-29T05:40:40.009Z,101336.47
2023-03-29T05:43:55.077Z,101267.28
2023-03-29T05:47:03.320Z,101334.84
2023-03-29T05:50:12.417Z,101342.72
2023-03-29T05:53:21.337Z,101351.03
2023-03-29T05:56:43.372Z,101341.78
2023-03-29T05:59:51.277Z,101356.16
2023-03-29T06:03:18.001Z,101348.09
2023-03-29T06:06:22.774Z,101360.56
2023-03-29T06:09:37.312Z,101365.09
2023-03-29T06:12:46.310Z,101357.97
2023-03-29T06:16:01.343Z,101362.63
2023-03-29T06:19:16.306Z,101357.88
2023-03-29T06:22:24.303Z,101355.94
2023-03-29T06:25:50.392Z,101360.09
2023-03-29T06:28:52.477Z,101363.94
2023-03-29T06:32:07.304Z,101368.44
2023-03-29T06:35:16.844Z,101376.50
2023-03-29T06:38:25.836Z,101369.69
2023-03-29T06:41:41.620Z,101369.78
2023-03-29T06:44:43.341Z,101365.91
2023-03-29T06:47:58.377Z,101372.34
2023-03-29T06:51:00.669Z,101371.94
2023-03-29T06:54:19.356Z,101367.16
2023-03-29T06:57:27.681Z,101367.97
2023-03-29T07:03:59.064Z,101374.94
2023-03-29T07:07:15.367Z,101375.19
2023-03-29T07:10:30.271Z,101381.97
2023-03-29T07:13:41.534Z,101360.50
2023-03-29T07:16:55.995Z,101389.25
2023-03-29T07:20:20.667Z,101391.53
2023-03-29T07:23:32.836Z,101391.00
2023-03-29T07:27:00.275Z,101395.91
2023-03-29T07:30:23.095Z,101393.37
2023-03-29T07:33:28.285Z,101402.31
2023-03-29T07:36:45.363Z,101358.56
2023-03-29T07:39:47.037Z,101406.34
2023-03-29T07:43:18.349Z,101405.16
2023-03-29T07:46:20.185Z,101406.19
2023-03-29T07:49:38.324Z,101405.69
2023-03-29T07:52:47.366Z,101398.50
2023-03-29T07:56:02.434Z,101403.97
2023-03-29T07:59:17.468Z,101411.81
2023-03-29T08:05:48.378Z,101415.06
2023-03-29T08:09:16.561Z,101413.16
2023-03-29T08:12:29.279Z,101410.09
2023-03-29T08:15:45.396Z,101402.47
2023-03-29T08:18:47.113Z,101398.47
2023-03-29T08:22:03.526Z,101409.16
2023-03-29T08:25:14.801Z,101405.72
2023-03-29T08:28:22.952Z,101397.03
2023-03-29T08:31:31.399Z,101395.56
2023-03-29T08:34:47.448Z,101394.84
2023-03-29T08:37:49.148Z,101388.97
2023-03-29T08:41:03.738Z,101392.47
2023-03-29T08:44:28.577Z,101389.19
2023-03-29T08:48:00.620Z,101396.44
2023-03-29T08:51:15.998Z,101391.59
2023-03-29T08:54:49.790Z,101393.13
2023-03-29T08:58:12.605Z,101390.84
2023-03-29T09:01:29.382Z,101385.06
2023-03-29T09:04:47.428Z,101384.81
2023-03-29T09:07:49.784Z,101377.78
2023-03-29T09:11:21.376Z,101374.16
2023-03-29T09:14:47.780Z,101368.72
2023-03-29T09:18:14.412Z,101366.03
2023-03-29T09:21:43.710Z,101361.53
2023-03-29T09:25:03.448Z,101348.94
2023-03-29T09:28:42.892Z,101351.50
2023-03-29T09:32:02.669Z,101357.19
2023-03-29T09:35:26.388Z,101340.56
2023-03-29T09:38:37.440Z,101342.50
2023-03-29T09:45:26.357Z,101335.84
2023-03-29T09:48:46.407Z,101336.13
2023-03-29T09:51:50.119Z,101333.28
2023-03-29T09:55:10.397Z,101330.59
2023-03-29T09:58:34.419Z,101324.13
2023-03-29T10:01:38.622Z,101319.97
2023-03-29T10:04:59.419Z,101323.41
2023-03-29T10:08:22.030Z,101309.16
2023-03-29T10:11:44.149Z,101304.47
2023-03-29T10:14:56.097Z,101298.97
2023-03-29T10:18:12.464Z,101287.91
2023-03-29T10:21:28.418Z,101285.22
2023-03-29T10:28:11.421Z,101280.47
2023-03-29T10:31:28.826Z,101278.97
2023-03-29T10:34:37.171Z,101276.06
2023-03-29T10:37:52.653Z,101274.50
2023-03-29T10:41:19.550Z,101265.53
2023-03-29T10:44:32.801Z,101265.13
2023-03-29T10:47:51.481Z,101265.22
2023-03-29T10:50:59.804Z,101254.81
2023-03-29T10:54:23.380Z,101246.66
2023-03-29T11:02:33.246Z,101242.09
2023-03-29T11:06:12.052Z,101242.09
2023-03-29T11:09:53.045Z,101248.91
2023-03-29T11:13:24.036Z,101243.03
2023-03-29T11:17:04.133Z,101240.16
2023-03-29T11:20:47.724Z,101233.72
2023-03-29T11:24:25.654Z,101230.75
2023-03-29T11:27:49.335Z,101224.16
2023-03-29T11:31:32.070Z,101216.97
2023-03-29T11:35:11.165Z,101229.75
2023-03-29T11:38:29.915Z,101225.53
2023-03-29T11:41:42.299Z,101213.44
2023-03-29T11:45:01.366Z,101208.34
2023-03-29T11:48:23.382Z,101205.31
2023-03-29T11:51:44.082Z,101196.53
2023-03-29T11:55:00.635Z,101195.50
2023-03-29T11:58:26.233Z,101197.59
2023-03-29T12:01:46.106Z,101197.78
2023-03-29T12:05:06.132Z,101187.75
2023-03-29T12:08:21.094Z,101191.69
2023-03-29T12:11:38.028Z,101173.84
2023-03-29T12:14:59.061Z,101166.47
2023-03-29T12:18:39.636Z,101150.00
2023-03-29T12:21:53.072Z,101159.13
2023-03-29T12:25:11.503Z,101152.72
2023-03-29T12:28:36.087Z,101141.66
2023-03-29T12:32:27.129Z,101157.31
2023-03-29T12:36:13.234Z,101153.91
2023-03-29T12:39:17.732Z,101151.22
2023-03-29T12:42:53.077Z,101145.28
2023-03-29T12:46:02.015Z,101142.34
2023-03-29T12:49:34.199Z,101144.19
2023-03-29T12:52:43.107Z,101123.41
2023-03-29T12:56:08.469Z,101143.25
2023-03-29T12:59:49.173Z,101137.88
2023-03-29T13:03:40.563Z,101132.28
2023-03-29T13:06:56.645Z,101137.12
2023-03-29T13:10:16.265Z,101143.53
2023-03-29T13:13:36.873Z,101136.06
2023-03-29T13:20:50.745Z,101128.84
2023-03-29T13:24:24.174Z,101121.63
2023-03-29T13:28:04.835Z,101116.09
2023-03-29T13:31:55.134Z,101116.62
2023-03-29T13:35:28.344Z,101106.19
2023-03-29T13:38:38.100Z,101108.06
2023-03-29T13:42:19.334Z,101104.66
2023-03-29T13:45:33.327Z,101095.81
2023-03-29T13:52:43.378Z,101098.47
2023-03-29T13:55:53.862Z,101083.50
2023-03-29T13:59:13.998Z,101064.37
2023-03-29T14:02:54.176Z,101078.53
2023-03-29T14:06:14.602Z,101081.19
2023-03-29T14:09:31.557Z,101077.37
2023-03-29T14:12:44.299Z,101080.41
2023-03-29T14:16:05.415Z,101083.28
2023-03-29T14:19:20.358Z,101075.59
2023-03-29T14:22:41.668Z,101079.28
2023-03-29T14:25:43.521Z,101073.56
2023-03-29T14:29:02.438Z,101075.19
2023-03-29T14:32:20.173Z,101067.37
2023-03-29T14:35:32.329Z,101070.91
2023-03-29T14:38:47.721Z,101071.16
2023-03-29T14:41:53.637Z,101072.34
2023-03-29T14:45:12.157Z,101070.13
2023-03-29T14:48:21.249Z,101077.13
2023-03-29T14:51:36.144Z,101073.91
2023-03-29T14:54:55.129Z,101055.72
2023-03-29T14:57:59.904Z,101058.88
2023-03-29T15:01:24.618Z,101059.91
2023-03-29T15:04:34.972Z,101055.50
2023-03-29T15:07:50.150Z,101059.31
2023-03-29T15:11:00.199Z,101057.37
2023-03-29T15:14:38.420Z,101048.00
2023-03-29T15:17:52.275Z,101049.03
2023-03-29T15:21:08.185Z,101050.87
2023-03-29T15:24:29.782Z,101041.28
2023-03-29T15:27:47.184Z,101044.81
2023-03-29T15:31:07.372Z,101041.69
2023-03-29T15:34:30.477Z,101044.22
2023-03-29T15:37:45.146Z,101041.13
2023-03-29T15:40:47.903Z,101039.12
2023-03-29T15:44:05.206Z,101036.28
2023-03-29T15:47:10.456Z,101029.34
2023-03-29T15:50:25.171Z,101023.81
2023-03-29T15:53:26.942Z,101025.69
2023-03-29T15:56:46.210Z,101018.16
2023-03-29T15:59:47.949Z,101017.91
2023-03-29T16:03:09.292Z,101015.91
2023-03-29T16:06:20.177Z,101013.78
2023-03-29T16:09:28.850Z,100965.66
2023-03-29T16:12:37.186Z,101005.16
2023-03-29T16:15:46.240Z,101008.84
2023-03-29T16:18:55.194Z,101007.41
2023-03-29T16:22:10.209Z,100999.34
2023-03-29T16:25:21.267Z,101002.31
2023-03-29T16:28:29.677Z,100995.94
2023-03-29T16:31:38.244Z,101001.78
2023-03-29T16:34:53.234Z,100991.84
2023-03-29T16:37:55.211Z,100993.25
2023-03-29T16:41:13.519Z,100981.88
2023-03-29T16:44:23.752Z,100988.94
2023-03-29T16:47:33.222Z,100986.69
2023-03-29T16:50:42.085Z,100985.09
2023-03-29T16:53:51.306Z,100992.03
2023-03-29T16:57:06.932Z,100989.50
2023-03-29T17:00:18.129Z,100996.56
2023-03-29T17:03:33.190Z,100995.47
2023-03-29T17:06:41.814Z,100985.28
2023-03-29T17:09:50.206Z,100993.34
2023-03-29T17:12:59.549Z,100991.25
2023-03-29T17:16:08.248Z,100990.66
2023-03-29T17:19:16.761Z,100979.19
2023-03-29T17:22:25.233Z,100982.44
2023-03-29T17:25:40.254Z,100985.13
2023-03-29T17:28:55.943Z,100985.38
2023-03-29T17:32:06.258Z,100984.94
2023-03-29T17:35:14.897Z,100992.91
2023-03-29T17:38:23.276Z,100997.97
2023-03-29T17:41:38.238Z,101001.34
2023-03-29T17:44:53.265Z,101000.19
2023-03-29T17:47:54.922Z,100994.13
2023-03-29T17:51:09.233Z,101000.47
2023-03-29T17:54:11.042Z,101005.44
2023-03-29T17:57:25.355Z,101010.34
2023-03-29T18:00:33.869Z,101005.00
2023-03-29T18:03:56.254Z,101012.38
2023-03-29T18:07:04.698Z,101018.56
2023-03-29T18:10:14.595Z,101018.91
2023-03-29T18:13:29.242Z,101028.72
2023-03-29T18:16:31.133Z,101028.09
2023-03-29T18:19:46.196Z,101035.84
2023-03-29T18:22:48.290Z,101037.56
2023-03-29T18:26:07.291Z,101034.59
2023-03-29T18:29:15.263Z,101037.16
2023-03-29T18:32:24.538Z,101030.59
2023-03-29T18:35:32.257Z,101044.34
2023-03-29T18:38:41.493Z,101044.31
2023-03-29T18:41:49.658Z,101050.00
2023-03-29T18:45:04.288Z,101047.56
2023-03-29T18:48:12.934Z,101054.59
2023-03-29T18:51:21.326Z,101039.22
2023-03-29T18:54:29.737Z,101044.44
2023-03-29T18:57:38.245Z,101051.53
2023-03-29T19:01:01.010Z,101046.03
2023-03-29T19:04:15.258Z,101045.25
2023-03-29T19:07:23.793Z,101055.41
2023-03-29T19:10:32.328Z,101048.91
2023-03-29T19:13:44.769Z,101054.00
2023-03-29T19:16:53.353Z,101053.75
2023-03-29T19:20:01.862Z,101048.31
2023-03-29T19:23:11.294Z,101060.03
2023-03-29T19:26:20.070Z,101059.78
2023-03-29T19:29:29.349Z,101051.22
2023-03-29T19:32:44.281Z,101051.75
2023-03-29T19:35:46.611Z,101047.25
2023-03-29T19:39:01.287Z,101060.53
2023-03-29T19:42:03.057Z,101061.09
2023-03-29T19:45:18.412Z,101064.00
2023-03-29T19:48:22.961Z,101045.50
2023-03-29T19:51:38.241Z,101044.53
2023-03-29T19:54:46.517Z,101056.50
2023-03-29T19:58:01.255Z,101041.25
2023-03-29T20:01:16.291Z,101051.00
2023-03-29T20:04:31.271Z,101042.97
2023-03-29T20:07:39.778Z,101040.28
2023-03-29T20:10:48.286Z,101042.91
2023-03-29T20:13:57.369Z,101045.12
2023-03-29T20:17:19.047Z,101042.31
2023-03-29T20:20:27.432Z,101042.31
2023-03-29T20:23:35.319Z,101037.44
2023-03-29T20:26:50.293Z,101034.91
2023-03-29T20:29:52.018Z,101028.12
2023-03-29T20:33:06.561Z,101024.94
2023-03-29T20:36:08.432Z,101022.81
2023-03-29T20:39:25.581Z,101032.03
2023-03-29T20:42:27.492Z,101021.19
2023-03-29T20:45:52.119Z,101020.56
2023-03-29T20:49:09.170Z,101022.88
2023-03-29T20:52:24.310Z,101014.97
2023-03-29T20:55:30.537Z,101023.66
2023-03-29T20:58:45.594Z,101027.22
2023-03-29T21:01:54.367Z,101025.44
2023-03-29T21:05:16.322Z,101021.13
2023-03-29T21:08:24.332Z,101026.34
2023-03-29T21:11:32.877Z,101014.31
2023-03-29T21:14:47.340Z,101014.06
2023-03-29T21:17:56.334Z,101016.28
2023-03-29T21:21:13.410Z,101016.69
2023-03-29T21:24:21.310Z,101016.34
2023-03-29T21:27:36.447Z,101015.09
2023-03-29T21:30:38.101Z,101007.50
2023-03-29T21:33:52.321Z,101010.53
2023-03-29T21:36:54.337Z,101008.69
2023-03-29T21:40:11.335Z,100996.19
2023-03-29T21:43:20.002Z,101001.31
2023-03-29T21:46:28.346Z,101000.59
2023-03-29T21:49:38.017Z,101002.66
2023-03-29T21:52:46.410Z,100999.47
2023-03-29T21:56:01.343Z,101005.09
2023-03-29T21:59:16.734Z,100999.53
2023-03-29T22:02:38.495Z,101005.75
2023-03-29T22:06:05.339Z,101005.41
2023-03-29T22:09:13.624Z,101001.03
2023-03-29T22:12:22.371Z,101002.16
2023-03-29T22:15:30.423Z,100999.13
2023-03-29T22:18:46.402Z,101005.47
2023-03-29T22:21:55.344Z,101011.41
2023-03-29T22:25:10.661Z,101006.44
2023-03-29T22:28:12.319Z,101008.41
2023-03-29T22:31:29.431Z,100997.56
2023-03-29T22:34:31.707Z,100991.00
2023-03-29T22:37:49.366Z,100997.34
2023-03-29T22:40:57.330Z,100998.69
2023-03-29T22:44:05.893Z,101009.72
2023-03-29T22:47:14.349Z,101011.88
2023-03-29T22:50:30.655Z,101018.16
2023-03-29T22:53:33.314Z,101024.28
2023-03-29T22:56:48.478Z,101009.81
2023-03-29T22:59:50.151Z,101017.00
2023-03-29T23:03:11.389Z,101011.66
2023-03-29T23:06:20.378Z,101006.28
2023-03-29T23:09:36.361Z,101009.31
2023-03-29T23:12:51.398Z,101009.25
2023-03-29T23:16:01.027Z,101006.31
2023-03-29T23:19:09.396Z,101011.41
2023-03-29T23:22:25.403Z,101014.81
2023-03-29T23:25:27.634Z,101001.19
2023-03-29T23:28:42.466Z,101010.66
2023-03-29T23:31:47.445Z,101009.94
2023-03-29T23:35:02.367Z,101006.78
2023-03-29T23:38:11.629Z,101008.97
2023-03-29T23:41:19.876Z,101001.91
2023-03-29T23:44:28.370Z,101007.78
2023-03-29T23:47:38.180Z,100998.66
2023-03-29T23:50:46.359Z,101004.25
2023-03-29T23:53:55.839Z,101000.84
2023-03-29T23:57:10.438Z,100999.00
